52NC weather

Epley Airport
Jacksonville, North Carolina, United States

Public forecast

Using degrees Fahrenheit for public forecast. Weather courtesy of forecast.io.

METAR (pilot weather report)

Closest report is New River MCAS /H/ /Mccutcheon Fld/ Airport, 11.8 nm (21.9 km) SW. Retrieved 2019/06/15 23:56 UTC (27 minutes ago):

KNCA 152356Z AUTO 17005KT 10SM CLR 24/15 A3014 RMK AO2 SLP210 T02390150 10272 20239 56005

TAF (pilot weather forecast)

Forecast is more than 12 hours old.

Closest forecast is New River MCAS /H/ /Mccutcheon Fld/ Airport, 11.8 nm (21.9 km) SW. Retrieved 2014/12/02 09:26 UTC (5 years ago):

TAF KNCA 020900Z 0209/0309 VRB06KT 2400 BR SCT002 QNH3032INS TEMPO 0209/0213 0400 FG VV002 BECMG 0213/0215 05007KT 9999 SCT007 BKN015 QNH3036INS FM030200 VRB03KT 2400 BR BKN007 QNH3034INS T09/0211Z T16/0219Z